createdAt,value
2023-04-18T00:01:55.734Z,18.50
2023-04-18T00:04:23.760Z,17.70
2023-04-18T00:06:51.978Z,17.60
2023-04-18T00:09:19.894Z,19.10
2023-04-18T00:11:47.863Z,19.37
2023-04-18T00:14:17.151Z,17.97
2023-04-18T00:16:45.965Z,17.83
2023-04-18T00:19:14.350Z,19.13
2023-04-18T00:21:44.721Z,18.40
2023-04-18T00:24:13.005Z,18.33
2023-04-18T00:26:41.166Z,17.80
2023-04-18T00:29:09.050Z,17.10
2023-04-18T00:31:38.449Z,17.57
2023-04-18T00:34:06.294Z,17.53
2023-04-18T00:36:34.180Z,17.50
2023-04-18T00:39:02.100Z,16.37
2023-04-18T00:41:30.031Z,17.50
2023-04-18T00:43:57.944Z,17.27
2023-04-18T00:46:25.832Z,17.67
2023-04-18T00:48:55.096Z,18.57
2023-04-18T00:51:22.954Z,18.20
2023-04-18T00:53:50.804Z,17.80
2023-04-18T00:56:18.766Z,18.03
2023-04-18T00:58:46.632Z,18.73
2023-04-18T01:01:14.522Z,18.33
2023-04-18T01:03:42.597Z,19.10
2023-04-18T01:06:12.121Z,18.23
2023-04-18T01:08:39.984Z,18.17
2023-04-18T01:11:07.860Z,19.83
2023-04-18T01:13:35.730Z,17.67
2023-04-18T01:16:03.655Z,18.90
2023-04-18T01:18:31.627Z,19.63
2023-04-18T01:21:00.575Z,19.10
2023-04-18T01:23:30.592Z,18.47
2023-04-18T01:25:59.928Z,18.80
2023-04-18T01:28:27.904Z,19.23
2023-04-18T01:30:55.890Z,18.63
2023-04-18T01:33:23.777Z,19.10
2023-04-18T01:35:51.644Z,19.07
2023-04-18T01:38:19.512Z,18.70
2023-04-18T01:40:47.554Z,18.83
2023-04-18T01:43:16.841Z,19.40
2023-04-18T01:45:44.771Z,18.50
2023-04-18T01:48:12.696Z,19.77
2023-04-18T01:50:40.663Z,19.43
2023-04-18T01:53:08.553Z,20.33
2023-04-18T01:55:36.458Z,20.43
2023-04-18T01:58:04.415Z,20.40
2023-04-18T02:00:33.764Z,20.37
2023-04-18T02:03:01.894Z,21.80
2023-04-18T02:05:30.072Z,21.37
2023-04-18T02:07:57.941Z,21.03
2023-04-18T02:10:26.011Z,21.50
2023-04-18T02:12:54.000Z,21.87
2023-04-18T02:15:22.256Z,20.60
2023-04-18T02:17:51.610Z,21.00
2023-04-18T02:20:19.495Z,21.83
2023-04-18T02:22:47.901Z,20.97
2023-04-18T02:25:15.758Z,21.10
2023-04-18T02:27:43.645Z,21.73
2023-04-18T02:30:12.159Z,21.67
2023-04-18T02:32:40.135Z,20.43
2023-04-18T02:35:09.956Z,20.03
2023-04-18T02:37:37.846Z,20.43
2023-04-18T02:40:07.273Z,21.17
2023-04-18T02:42:35.188Z,20.10
2023-04-18T02:45:03.084Z,20.73
2023-04-18T02:47:35.392Z,21.03
2023-04-18T02:50:13.217Z,19.93
2023-04-18T02:52:41.106Z,20.27
2023-04-18T02:55:09.674Z,19.87
2023-04-18T02:57:37.536Z,19.83
2023-04-18T03:00:07.203Z,21.10
2023-04-18T03:02:35.270Z,20.33
2023-04-18T03:05:03.426Z,20.30
2023-04-18T03:07:32.777Z,19.93
2023-04-18T03:10:00.970Z,19.63
2023-04-18T03:12:28.794Z,19.60
2023-04-18T03:14:56.679Z,20.40
2023-04-18T03:17:24.573Z,20.27
2023-04-18T03:19:52.476Z,19.03
2023-04-18T03:22:20.419Z,19.17
2023-04-18T03:24:49.652Z,18.07
2023-04-18T03:27:17.605Z,18.80
2023-04-18T03:29:45.552Z,18.33
2023-04-18T03:32:13.427Z,19.53
2023-04-18T03:34:41.345Z,18.87
2023-04-18T03:37:09.276Z,21.13
2023-04-18T03:39:37.144Z,20.27
2023-04-18T03:42:06.518Z,19.67
2023-04-18T03:44:34.439Z,19.60
2023-04-18T03:47:02.396Z,20.73
2023-04-18T03:49:30.256Z,19.93
2023-04-18T03:51:58.144Z,20.57
2023-04-18T03:54:26.011Z,19.47
2023-04-18T03:56:53.869Z,18.50
2023-04-18T03:59:23.133Z,19.07
2023-04-18T04:01:51.045Z,19.03
2023-04-18T04:04:19.195Z,17.77
2023-04-18T04:06:47.319Z,19.50
2023-04-18T04:09:15.210Z,18.77
2023-04-18T04:11:43.420Z,18.97
2023-04-18T04:14:11.382Z,19.00
2023-04-18T04:16:40.694Z,18.63
2023-04-18T04:19:08.666Z,19.93
2023-04-18T04:21:36.591Z,19.73
2023-04-18T04:24:04.785Z,19.87
2023-04-18T04:26:32.638Z,19.77
2023-04-18T04:29:00.495Z,20.23
2023-04-18T04:31:28.807Z,19.10
2023-04-18T04:33:58.061Z,19.03
2023-04-18T04:36:27.279Z,20.17
2023-04-18T04:38:55.207Z,19.43
2023-04-18T04:41:24.629Z,19.97
2023-04-18T04:43:53.170Z,19.60
2023-04-18T04:46:21.201Z,19.70
2023-04-18T04:48:49.754Z,20.70
2023-04-18T04:51:18.986Z,19.97
2023-04-18T04:53:46.893Z,18.83
2023-04-18T04:56:14.790Z,19.23
2023-04-18T04:58:42.698Z,18.80
2023-04-18T05:01:11.588Z,19.67
2023-04-18T05:03:39.629Z,19.93
2023-04-18T05:06:07.797Z,18.77
2023-04-18T05:08:37.032Z,18.07
2023-04-18T05:11:04.981Z,18.17
2023-04-18T05:13:32.889Z,18.30
2023-04-18T05:16:00.745Z,17.10
2023-04-18T05:18:28.626Z,16.53
2023-04-18T05:20:56.961Z,16.77
2023-04-18T05:23:24.960Z,17.53
2023-04-18T05:25:54.212Z,17.27
2023-04-18T05:28:22.828Z,17.70
2023-04-18T05:30:51.097Z,17.07
2023-04-18T05:33:19.096Z,17.30
2023-04-18T05:35:47.077Z,17.07
2023-04-18T05:38:15.001Z,16.60
2023-04-18T05:40:43.575Z,17.90
2023-04-18T05:43:12.950Z,17.33
2023-04-18T05:45:40.855Z,16.73
2023-04-18T05:48:08.793Z,16.60
2023-04-18T05:50:36.710Z,16.30
2023-04-18T05:53:04.578Z,16.47
2023-04-18T05:55:32.558Z,17.40
2023-04-18T05:58:00.485Z,17.33
2023-04-18T06:00:29.827Z,18.13
2023-04-18T06:02:57.860Z,18.87
2023-04-18T06:05:26.231Z,18.77
2023-04-18T06:07:54.293Z,17.90
2023-04-18T06:10:22.264Z,18.60
2023-04-18T06:12:50.121Z,17.57
2023-04-18T06:15:18.087Z,18.03
2023-04-18T06:17:47.425Z,16.97
2023-04-18T06:20:15.488Z,17.40
2023-04-18T06:22:43.478Z,18.20
2023-04-18T06:25:11.469Z,17.60
2023-04-18T06:27:39.524Z,17.80
2023-04-18T06:30:08.298Z,17.77
2023-04-18T06:32:36.522Z,15.93
2023-04-18T06:35:06.716Z,16.57
2023-04-18T06:37:34.574Z,15.63
2023-04-18T06:40:02.606Z,17.23
2023-04-18T06:42:30.453Z,17.37
2023-04-18T06:44:58.377Z,15.70
2023-04-18T06:47:26.626Z,15.67
2023-04-18T06:49:54.613Z,15.30
2023-04-18T06:52:23.965Z,14.93
2023-04-18T06:54:52.157Z,16.53
2023-04-18T06:57:20.036Z,15.83
2023-04-18T06:59:49.070Z,15.53
2023-04-18T07:02:16.998Z,15.70
2023-04-18T07:04:45.031Z,16.67
2023-04-18T07:07:13.155Z,16.10
2023-04-18T07:09:42.446Z,16.10
2023-04-18T07:12:10.649Z,15.77
2023-04-18T07:14:39.577Z,15.30
2023-04-18T07:17:07.624Z,15.53
2023-04-18T07:19:35.602Z,13.60
2023-04-18T07:22:03.493Z,14.97
2023-04-18T07:24:31.545Z,13.50
2023-04-18T07:27:01.520Z,15.73
2023-04-18T07:29:29.451Z,14.87
2023-04-18T07:31:58.038Z,16.50
2023-04-18T07:34:26.798Z,14.00
2023-04-18T07:36:55.876Z,15.57
2023-04-18T07:39:23.816Z,14.07
2023-04-18T07:41:51.856Z,14.60
2023-04-18T07:44:22.005Z,13.37
2023-04-18T07:46:50.549Z,13.70
2023-04-18T07:49:18.844Z,13.73
2023-04-18T07:51:46.958Z,13.80
2023-04-18T07:54:15.423Z,13.40
2023-04-18T07:56:43.348Z,13.30
2023-04-18T07:59:11.445Z,14.20
2023-04-18T08:01:40.983Z,12.83
2023-04-18T08:04:08.988Z,13.80
2023-04-18T08:06:37.273Z,13.63
2023-04-18T08:09:06.066Z,13.00
2023-04-18T08:11:34.123Z,13.43
2023-04-18T08:14:02.044Z,11.87
2023-04-18T08:16:29.998Z,13.63
2023-04-18T08:18:59.288Z,12.47
2023-04-18T08:21:27.470Z,11.87
2023-04-18T08:23:55.655Z,12.30
2023-04-18T08:26:23.610Z,11.80
2023-04-18T08:28:51.749Z,14.13
2023-04-18T08:33:47.948Z,11.97
2023-04-18T08:36:17.310Z,11.97
2023-04-18T08:38:45.188Z,13.47
2023-04-18T08:41:13.174Z,12.07
2023-04-18T08:43:41.215Z,12.63
2023-04-18T08:46:09.203Z,11.80
2023-04-18T08:48:37.202Z,11.53
2023-04-18T08:51:05.609Z,11.17
2023-04-18T08:53:35.267Z,9.73
2023-04-18T08:56:05.658Z,9.30
2023-04-18T08:58:34.982Z,10.60
2023-04-18T09:01:03.096Z,9.10
2023-04-18T09:03:39.697Z,9.63
2023-04-18T09:06:09.450Z,10.40
2023-04-18T09:08:39.225Z,11.33
2023-04-18T09:11:23.979Z,9.93
2023-04-18T09:13:51.976Z,11.00
2023-04-18T09:16:20.802Z,10.60
2023-04-18T09:19:12.336Z,11.67
2023-04-18T09:21:40.899Z,12.73
2023-04-18T09:24:21.117Z,11.77
2023-04-18T09:26:50.822Z,12.43
2023-04-18T09:29:22.418Z,14.40
2023-04-18T09:31:57.691Z,11.60
2023-04-18T09:34:26.329Z,11.30
2023-04-18T09:37:08.171Z,12.27
2023-04-18T09:39:38.506Z,13.63
2023-04-18T09:42:07.146Z,12.47
2023-04-18T09:44:35.059Z,12.53
2023-04-18T09:47:03.120Z,13.77
2023-04-18T09:49:31.040Z,12.87
2023-04-18T09:51:59.046Z,14.57
2023-04-18T09:54:27.400Z,12.27
2023-04-18T09:56:57.075Z,12.43
2023-04-18T09:59:36.564Z,12.30
2023-04-18T10:02:04.880Z,12.90
2023-04-18T10:04:35.744Z,13.43
2023-04-18T10:07:04.005Z,13.20
2023-04-18T10:09:33.395Z,11.80
2023-04-18T10:12:03.486Z,12.33
2023-04-18T10:14:32.514Z,11.80
2023-04-18T10:17:01.100Z,12.13
2023-04-18T10:19:30.185Z,11.40
2023-04-18T10:21:59.153Z,11.43
2023-04-18T10:24:48.507Z,10.57
2023-04-18T10:27:18.535Z,10.83
2023-04-18T10:29:50.729Z,11.63
2023-04-18T10:32:19.130Z,12.10
2023-04-18T10:34:47.814Z,9.60
2023-04-18T10:37:17.759Z,11.33
2023-04-18T10:39:50.665Z,10.50
2023-04-18T10:42:20.039Z,10.87
2023-04-18T10:45:18.494Z,11.10
2023-04-18T10:47:46.448Z,10.60
2023-04-18T10:50:14.844Z,9.80
2023-04-18T10:52:45.713Z,9.97
2023-04-18T10:55:20.633Z,11.10
2023-04-18T10:57:50.703Z,10.30
2023-04-18T11:00:21.794Z,10.33
2023-04-18T11:02:52.227Z,10.50
2023-04-18T11:05:21.839Z,10.00
2023-04-18T11:07:50.312Z,11.50
2023-04-18T11:10:19.009Z,10.90
2023-04-18T11:12:46.982Z,10.97
2023-04-18T11:15:17.769Z,10.83
2023-04-18T11:17:45.795Z,10.87
2023-04-18T11:20:14.956Z,10.60
2023-04-18T11:22:47.606Z,9.60
2023-04-18T11:25:15.761Z,9.27
2023-04-18T11:27:45.116Z,9.90
2023-04-18T11:30:13.850Z,10.47
2023-04-18T11:32:47.618Z,10.10
2023-04-18T11:35:17.733Z,9.40
2023-04-18T11:37:45.997Z,10.00
2023-04-18T11:40:14.615Z,9.90
2023-04-18T11:42:42.550Z,10.05
2023-04-18T11:45:12.443Z,9.32
2023-04-18T11:47:41.946Z,9.98
2023-04-18T11:50:12.764Z,9.82
2023-04-18T11:52:42.947Z,10.40
2023-04-18T11:55:17.893Z,9.43
2023-04-18T11:57:56.303Z,9.75
2023-04-18T12:00:33.667Z,9.90
2023-04-18T12:03:02.996Z,10.02
2023-04-18T12:05:33.103Z,10.13
2023-04-18T12:08:11.502Z,10.80
2023-04-18T12:10:39.778Z,11.02
2023-04-18T12:13:09.253Z,10.88
2023-04-18T12:15:39.421Z,9.27
2023-04-18T12:18:09.773Z,10.32
2023-04-18T12:20:46.007Z,9.75
2023-04-18T12:23:35.576Z,10.68
2023-04-18T12:26:04.351Z,10.32
2023-04-18T12:28:32.226Z,10.10
2023-04-18T12:31:00.915Z,9.43
2023-04-18T12:33:28.978Z,9.80
2023-04-18T12:35:58.215Z,9.85
2023-04-18T12:38:27.076Z,9.60
2023-04-18T12:40:54.994Z,9.75
2023-04-18T12:43:23.076Z,15.57
2023-04-18T12:45:51.109Z,22.92
2023-04-18T12:48:19.326Z,15.35
2023-04-18T12:50:47.282Z,13.73
2023-04-18T12:53:16.782Z,16.30
2023-04-18T12:55:44.759Z,17.25
2023-04-18T12:58:15.178Z,9.68
2023-04-18T13:00:43.151Z,9.07
2023-04-18T13:03:13.173Z,10.57
2023-04-18T13:05:41.573Z,8.88
2023-04-18T13:08:16.751Z,8.40
2023-04-18T13:10:47.678Z,8.43
2023-04-18T13:13:15.789Z,8.98
2023-04-18T13:15:43.831Z,8.38
2023-04-18T13:18:11.724Z,8.80
2023-04-18T13:20:39.635Z,8.50
2023-04-18T13:23:07.582Z,9.23
2023-04-18T13:25:35.576Z,9.43
2023-04-18T13:28:05.853Z,9.18
2023-04-18T13:30:38.453Z,9.63
2023-04-18T13:33:06.937Z,10.18
2023-04-18T13:35:35.381Z,9.90
2023-04-18T13:38:04.166Z,10.23
2023-04-18T13:40:33.496Z,10.10
2023-04-18T13:43:04.211Z,9.55
2023-04-18T13:45:34.013Z,10.85
2023-04-18T13:48:06.189Z,9.77
2023-04-18T13:50:37.344Z,9.60
2023-04-18T13:53:08.071Z,10.02
2023-04-18T13:55:37.108Z,10.40
2023-04-18T13:58:05.049Z,9.57
2023-04-18T14:00:34.418Z,10.05
2023-04-18T14:03:02.591Z,9.80
2023-04-18T14:05:31.098Z,10.40
2023-04-18T14:08:04.132Z,9.77
2023-04-18T14:10:32.411Z,10.27
2023-04-18T14:13:00.749Z,10.10
2023-04-18T14:15:30.795Z,9.13
2023-04-18T14:18:01.078Z,10.32
2023-04-18T14:20:34.296Z,8.57
2023-04-18T14:23:02.375Z,8.60
2023-04-18T14:25:30.590Z,7.97
2023-04-18T14:28:05.722Z,8.77
2023-04-18T14:30:33.760Z,7.90
2023-04-18T14:33:03.749Z,8.93
2023-04-18T14:35:31.783Z,8.88
2023-04-18T14:37:59.772Z,8.95
2023-04-18T14:40:27.856Z,8.13
2023-04-18T14:42:57.872Z,8.38
2023-04-18T14:45:26.177Z,8.73
2023-04-18T14:47:55.694Z,8.20
2023-04-18T14:50:25.506Z,7.68
2023-04-18T14:52:53.435Z,7.28
2023-04-18T14:55:21.342Z,7.93
2023-04-18T14:57:49.419Z,8.05
2023-04-18T15:00:18.548Z,8.48
2023-04-18T15:02:46.634Z,7.88
2023-04-18T15:05:15.261Z,8.43
2023-04-18T15:07:45.178Z,9.23
2023-04-18T15:10:15.258Z,7.60
2023-04-18T15:12:43.444Z,7.70
2023-04-18T15:15:12.251Z,8.93
2023-04-18T15:17:40.530Z,7.93
2023-04-18T15:20:09.930Z,8.07
2023-04-18T15:22:38.076Z,7.70
2023-04-18T15:25:08.625Z,8.70
2023-04-18T15:27:39.619Z,8.75
2023-04-18T15:30:11.105Z,7.90
2023-04-18T15:32:40.297Z,8.20
2023-04-18T15:35:09.343Z,8.27
2023-04-18T15:37:37.954Z,7.88
2023-04-18T15:40:11.242Z,7.05
2023-04-18T15:42:59.924Z,7.25
2023-04-18T15:45:28.060Z,7.63
2023-04-18T15:47:56.077Z,7.38
2023-04-18T15:50:24.639Z,6.78
2023-04-18T15:52:52.979Z,7.25
2023-04-18T15:55:22.424Z,7.40
2023-04-18T15:57:50.399Z,7.28
2023-04-18T16:00:19.829Z,7.43
2023-04-18T16:02:47.969Z,7.95
2023-04-18T16:05:16.145Z,7.05
2023-04-18T16:07:44.454Z,6.78
2023-04-18T16:10:12.952Z,7.25
2023-04-18T16:12:42.460Z,6.97
2023-04-18T16:15:11.225Z,7.15
2023-04-18T16:17:39.216Z,6.97
2023-04-18T16:20:09.296Z,6.85
2023-04-18T16:22:37.431Z,6.63
2023-04-18T16:25:06.282Z,7.47
2023-04-18T16:27:34.267Z,7.00
2023-04-18T16:30:05.765Z,6.70
2023-04-18T16:32:34.060Z,6.20
2023-04-18T16:35:02.116Z,7.00
2023-04-18T16:37:30.149Z,6.93
2023-04-18T16:39:58.160Z,6.43
2023-04-18T16:42:26.263Z,6.40
2023-04-18T16:44:57.337Z,6.60
2023-04-18T16:47:26.872Z,6.10
2023-04-18T16:49:55.784Z,6.63
2023-04-18T16:52:23.697Z,8.30
2023-04-18T16:54:52.743Z,5.67
2023-04-18T16:57:20.804Z,5.77
2023-04-18T16:59:48.720Z,5.80
2023-04-18T17:02:18.181Z,6.10
2023-04-18T17:04:47.562Z,6.30
2023-04-18T17:07:15.720Z,5.87
2023-04-18T17:09:43.604Z,5.70
2023-04-18T17:12:11.607Z,5.87
2023-04-18T17:14:39.607Z,6.70
2023-04-18T17:17:07.559Z,6.23
2023-04-18T17:19:35.472Z,6.90
2023-04-18T17:22:04.811Z,5.87
2023-04-18T17:24:32.695Z,6.83
2023-04-18T17:27:01.262Z,6.20
2023-04-18T17:29:29.192Z,6.17
2023-04-18T17:31:57.091Z,5.90
2023-04-18T17:34:25.037Z,5.70
2023-04-18T17:36:52.909Z,6.40
2023-04-18T17:39:25.327Z,5.97
2023-04-18T17:41:53.344Z,6.40
2023-04-18T17:44:21.382Z,6.80
2023-04-18T17:46:50.569Z,6.70
2023-04-18T17:49:18.644Z,6.00
2023-04-18T17:51:46.612Z,6.47
2023-04-18T17:54:14.668Z,6.70
2023-04-18T17:56:44.196Z,6.87
2023-04-18T17:59:12.238Z,7.10
2023-04-18T18:01:41.235Z,7.33
2023-04-18T18:04:09.260Z,7.80
2023-04-18T18:06:37.305Z,6.47
2023-04-18T18:09:05.294Z,6.93
2023-04-18T18:11:33.395Z,6.63
2023-04-18T18:14:02.695Z,6.60
2023-04-18T18:16:30.854Z,6.13
2023-04-18T18:18:59.730Z,6.50
2023-04-18T18:21:28.784Z,6.13
2023-04-18T18:23:56.795Z,6.53
2023-04-18T18:26:26.441Z,6.20
2023-04-18T18:28:54.551Z,6.40
2023-04-18T18:31:25.000Z,6.07
2023-04-18T18:33:53.006Z,7.03
2023-04-18T18:36:21.142Z,6.40
2023-04-18T18:38:49.048Z,6.23
2023-04-18T18:41:17.068Z,6.40
2023-04-18T18:43:45.020Z,6.37
2023-04-18T18:46:13.091Z,6.20
2023-04-18T18:48:44.995Z,6.00
2023-04-18T18:51:22.656Z,6.47
2023-04-18T18:53:54.706Z,7.10
2023-04-18T18:56:26.294Z,6.47
2023-04-18T18:58:57.584Z,6.80
2023-04-18T19:01:30.852Z,6.90
2023-04-18T19:04:04.631Z,6.20
2023-04-18T19:06:39.082Z,6.37
2023-04-18T19:09:12.464Z,6.13
2023-04-18T19:11:42.028Z,5.30
2023-04-18T19:14:13.350Z,5.80
2023-04-18T19:17:01.859Z,6.03
2023-04-18T19:19:42.360Z,5.83
2023-04-18T19:22:17.543Z,6.27
2023-04-18T19:24:53.653Z,6.47
2023-04-18T19:27:27.324Z,6.63
2023-04-18T19:29:58.398Z,6.13
2023-04-18T19:32:33.956Z,7.13
2023-04-18T19:35:10.980Z,5.67
2023-04-18T19:37:43.529Z,6.63
2023-04-18T19:40:18.514Z,6.27
2023-04-18T19:42:54.719Z,6.20
2023-04-18T19:45:29.598Z,5.87
2023-04-18T19:48:05.217Z,6.30
2023-04-18T19:50:42.267Z,6.43
2023-04-18T19:53:22.444Z,6.03
2023-04-18T19:55:51.818Z,6.60
2023-04-18T19:58:38.822Z,5.23
2023-04-18T20:01:10.088Z,6.20
2023-04-18T20:03:41.421Z,5.77
2023-04-18T20:06:27.983Z,6.13
2023-04-18T20:09:04.826Z,6.23
2023-04-18T20:11:39.585Z,6.07
2023-04-18T20:14:11.077Z,5.97
2023-04-18T20:17:05.483Z,5.43
2023-04-18T20:19:40.396Z,5.77
2023-04-18T20:29:30.927Z,6.17
2023-04-18T20:32:06.649Z,5.57
2023-04-18T20:34:37.912Z,5.70
2023-04-18T20:37:12.171Z,6.27
2023-04-18T20:39:48.978Z,6.30
2023-04-18T20:42:20.375Z,6.37
2023-04-18T20:44:51.004Z,6.13
2023-04-18T20:47:30.770Z,6.50
2023-04-18T20:50:09.404Z,6.50
2023-04-18T20:52:43.565Z,6.77
2023-04-18T20:55:23.900Z,6.27
2023-04-18T20:58:07.121Z,6.60
2023-04-18T21:00:48.887Z,6.70
2023-04-18T21:03:34.242Z,6.57
2023-04-18T21:06:14.112Z,7.10
2023-04-18T21:08:43.295Z,6.40
2023-04-18T21:11:22.110Z,6.50
2023-04-18T21:13:54.069Z,6.77
2023-04-18T21:16:24.193Z,6.30
2023-04-18T21:18:52.638Z,6.27
2023-04-18T21:21:24.313Z,6.83
2023-04-18T21:23:52.925Z,6.40
2023-04-18T21:26:22.215Z,6.70
2023-04-18T21:28:57.888Z,7.07
2023-04-18T21:31:27.042Z,7.07
2023-04-18T21:33:55.941Z,6.73
2023-04-18T21:36:25.170Z,6.77
2023-04-18T21:38:54.104Z,7.33
2023-04-18T21:41:24.331Z,7.83
2023-04-18T21:43:52.954Z,7.00
2023-04-18T21:46:21.820Z,7.10
2023-04-18T21:48:50.656Z,7.43
2023-04-18T21:51:19.347Z,6.67
2023-04-18T21:53:48.180Z,6.50
2023-04-18T21:56:17.480Z,6.40
2023-04-18T21:58:47.872Z,6.73
2023-04-18T22:01:16.551Z,6.70
2023-04-18T22:03:45.308Z,6.70
2023-04-18T22:06:14.097Z,7.30
2023-04-18T22:08:43.897Z,6.97
2023-04-18T22:11:13.867Z,6.93
2023-04-18T22:13:45.115Z,6.40
2023-04-18T22:16:15.383Z,6.27
2023-04-18T22:18:43.974Z,6.20
2023-04-18T22:21:12.529Z,6.30
2023-04-18T22:23:40.969Z,6.47
2023-04-18T22:26:09.246Z,6.27
2023-04-18T22:28:37.881Z,5.70
2023-04-18T22:31:07.043Z,5.70
2023-04-18T22:33:37.263Z,5.97
2023-04-18T22:36:06.598Z,6.10
2023-04-18T22:38:35.303Z,9.83
2023-04-18T22:41:03.991Z,6.03
2023-04-18T22:43:32.583Z,6.43
2023-04-18T22:46:01.391Z,6.13
2023-04-18T22:48:30.175Z,5.90
2023-04-18T22:51:01.995Z,6.40
2023-04-18T22:53:30.789Z,5.63
2023-04-18T22:55:59.325Z,6.37
2023-04-18T22:58:28.114Z,6.80
2023-04-18T23:00:56.743Z,6.77
2023-04-18T23:03:25.432Z,6.77
2023-04-18T23:05:54.243Z,7.00
2023-04-18T23:08:24.254Z,6.87
2023-04-18T23:10:52.234Z,6.97
2023-04-18T23:13:20.907Z,7.40
2023-04-18T23:15:49.586Z,6.77
2023-04-18T23:18:18.119Z,7.20
2023-04-18T23:20:48.416Z,6.73
2023-04-18T23:23:17.043Z,6.80
2023-04-18T23:25:47.124Z,6.83
2023-04-18T23:28:17.271Z,6.80
2023-04-18T23:30:45.523Z,6.87
2023-04-18T23:41:47.052Z,6.50
2023-04-18T23:44:17.108Z,7.13
2023-04-18T23:46:45.666Z,6.33
2023-04-18T23:49:14.291Z,7.17
2023-04-18T23:51:42.814Z,7.17
2023-04-18T23:54:11.394Z,7.60
2023-04-18T23:56:40.104Z,8.00
2023-04-18T23:59:08.765Z,8.07
